Time;durP1;ratioP1;P1;durP2;ratioP2;P2;SDS_P1;SDS_P2;PMS_P1;PMS_P2;Temp;Humidity;BMP_temperature;BMP_pressure;BME280_temperature;BME280_humidity;BME280_pressure;Samples;Min_cycle;Max_cycle;Signal;HPM_P1;HPM_P2
2022/08/09 00:05:17;;;;;;;1.90;1.70;;;22.80;47.10;;;-142.21;44.12;112049.66;5052369;28;20236;-76
2022/08/09 00:07:44;;;;;;;1.90;1.70;;;22.70;47.00;;;-142.21;44.40;112049.66;5055075;28;20210;-77
2022/08/09 00:10:11;;;;;;;1.80;1.70;;;22.60;46.90;;;-142.21;44.55;112049.66;5054128;28;20229;-75
2022/08/09 00:23:43;;;;;;;3.33;1.50;;;22.40;48.00;;;-142.21;45.53;112049.66;5045641;28;20312;-76
2022/08/09 00:26:11;;;;;;;2.10;1.90;;;22.40;48.00;;;-142.21;46.16;112049.66;5053016;28;20205;-75
2022/08/09 00:28:39;;;;;;;1.77;1.67;;;22.30;48.10;;;-142.21;46.71;112049.66;5052030;28;20673;-76
2022/08/09 00:31:06;;;;;;;2.30;1.70;;;22.20;48.60;;;-142.21;47.60;112049.66;5053824;28;20272;-76
2022/08/09 00:33:34;;;;;;;2.40;1.87;;;22.10;48.80;;;-142.21;47.33;112049.66;5053633;28;20595;-76
2022/08/09 00:36:02;;;;;;;2.20;1.60;;;22.10;48.80;;;-142.21;47.32;112049.66;5054005;28;20201;-77
2022/08/09 00:38:29;;;;;;;1.80;1.60;;;22.10;48.80;;;-142.21;47.78;112049.66;5053735;28;20206;-76
2022/08/09 00:40:57;;;;;;;1.70;1.60;;;22.10;48.90;;;-142.21;47.44;112049.66;5053774;28;20288;-76
2022/08/09 00:43:25;;;;;;;1.90;1.77;;;22.10;49.00;;;-142.21;47.71;112049.66;5054385;28;20208;-77
2022/08/09 00:45:52;;;;;;;1.73;1.57;;;22.10;49.50;;;-142.21;48.18;112049.66;5052964;28;20674;-76
2022/08/09 00:48:19;;;;;;;1.83;1.70;;;22.10;49.20;;;-142.21;48.09;112049.66;5052866;28;20605;-76
2022/08/09 00:50:46;;;;;;;2.10;1.90;;;22.10;49.20;;;-142.21;48.44;112049.66;5053336;28;20550;-76
2022/08/09 00:53:15;;;;;;;1.83;1.53;;;22.10;49.40;;;-142.21;48.59;112049.66;5053989;28;20197;-76
2022/08/09 00:55:44;;;;;;;1.90;1.73;;;22.10;49.40;;;-142.21;48.21;112049.66;5053441;28;20272;-76
2022/08/09 00:58:12;;;;;;;2.33;2.13;;;22.00;49.10;;;-142.21;48.33;112049.66;5053617;28;20206;-76
2022/08/09 01:00:43;;;;;;;2.87;1.73;;;22.00;49.20;;;-142.21;48.13;112049.66;5052746;28;20191;-75
2022/08/09 01:03:17;;;;;;;2.30;1.90;;;21.90;49.20;;;-142.21;47.98;112049.66;5053542;28;20277;-77
2022/08/09 01:05:57;;;;;;;2.10;1.83;;;21.80;49.10;;;-142.21;48.04;112049.66;5053002;28;20200;-77
2022/08/09 01:08:39;;;;;;;2.27;1.87;;;21.80;49.20;;;-142.21;48.01;112049.66;5053589;28;20228;-76
2022/08/09 01:11:23;;;;;;;2.60;1.90;;;21.70;49.10;;;-142.21;47.51;112049.66;5053093;28;20263;-77
2022/08/09 01:14:02;;;;;;;1.80;1.60;;;21.70;49.10;;;-142.21;47.39;112049.66;5052640;28;20589;-75
2022/08/09 01:16:39;;;;;;;2.00;1.70;;;21.70;49.10;;;-142.21;46.84;112049.66;5053436;28;20204;-76
2022/08/09 01:19:27;;;;;;;1.90;1.80;;;21.60;48.70;;;-142.21;46.84;112049.66;5053507;28;20198;-76
2022/08/09 01:22:33;;;;;;;5.07;1.93;;;21.60;48.80;;;-142.21;46.95;112049.66;5052889;28;20197;-77
2022/08/09 01:25:18;;;;;;;2.10;1.90;;;21.60;49.00;;;-142.21;47.60;112049.66;5053366;28;20202;-76
2022/08/09 01:27:54;;;;;;;1.97;1.73;;;21.60;49.00;;;-142.21;48.32;112049.66;5051813;28;20193;-76
2022/08/09 01:30:25;;;;;;;2.73;1.80;;;21.60;49.30;;;-142.21;49.08;112049.66;5053023;28;20236;-75
2022/08/09 01:32:55;;;;;;;2.37;1.80;;;21.50;49.50;;;-142.21;50.14;112049.66;5052692;28;20189;-78
2022/08/09 01:35:28;;;;;;;2.50;1.80;;;21.50;49.70;;;-142.21;50.45;112049.66;5053113;28;20202;-77
2022/08/09 01:38:02;;;;;;;3.50;2.00;;;21.40;50.10;;;-142.21;50.74;112049.66;5033741;28;20291;-77
2022/08/09 01:40:33;;;;;;;3.03;1.67;;;21.30;50.20;;;-142.21;51.15;112049.66;5053037;28;20194;-76
2022/08/09 01:43:03;;;;;;;3.43;1.77;;;21.30;50.30;;;-142.21;51.93;112049.66;5052443;28;20201;-76
2022/08/09 01:45:32;;;;;;;4.20;2.10;;;21.20;50.60;;;-142.21;51.70;112049.66;5052964;28;20190;-76
2022/08/09 01:48:01;;;;;;;1.80;1.70;;;21.30;50.60;;;-142.21;51.71;112049.66;5051968;28;20231;-77
2022/08/09 01:50:31;;;;;;;1.80;1.70;;;21.20;50.70;;;-142.21;52.07;112049.66;5052929;28;20545;-77
2022/08/09 01:56:45;;;;;;;3.60;1.70;;;21.20;51.50;;;-142.21;52.58;112049.66;5036140;28;20678;-77
2022/08/09 01:59:22;;;;;;;2.10;1.70;;;21.20;51.20;;;-142.21;52.75;112049.66;5052271;28;20190;-76
2022/08/09 02:02:00;;;;;;;1.90;1.70;;;21.10;51.40;;;-142.21;52.63;112049.66;5052458;28;20685;-76
2022/08/09 02:04:31;;;;;;;2.03;1.80;;;21.10;51.10;;;-142.21;52.21;112049.66;5052023;28;20927;-79
2022/08/09 02:07:10;;;;;;;2.07;1.60;;;21.10;50.90;;;-142.21;52.35;112049.66;5052465;28;20194;-76
2022/08/09 02:09:47;;;;;;;2.20;1.90;;;21.10;51.00;;;-142.21;52.78;112049.66;5052183;28;20190;-76
2022/08/09 02:12:19;;;;;;;4.93;1.77;;;21.10;51.00;;;-142.21;53.24;112049.66;5051657;28;20272;-77
2022/08/09 02:14:51;;;;;;;2.10;1.77;;;21.00;51.20;;;-142.21;53.24;112049.66;5052763;28;20217;-76
2022/08/09 02:17:37;;;;;;;2.20;1.70;;;21.00;51.20;;;-142.21;53.60;112049.66;5051001;28;20198;-77
2022/08/09 02:20:08;;;;;;;2.03;1.60;;;21.00;51.40;;;-142.21;53.58;112049.66;5052901;28;20228;-75
2022/08/09 02:22:42;;;;;;;2.50;1.63;;;20.90;51.30;;;-142.21;54.06;112049.66;5053095;28;20194;-75
2022/08/09 02:25:17;;;;;;;2.07;1.93;;;20.90;51.60;;;-142.21;54.58;112049.66;5051477;28;20280;-76
2022/08/09 02:27:53;;;;;;;2.23;2.03;;;20.90;51.70;;;-142.21;54.93;112049.66;5052316;28;20276;-77
2022/08/09 02:30:23;;;;;;;2.33;1.70;;;20.90;51.90;;;-142.21;55.39;112049.66;5052119;28;20300;-77
2022/08/09 02:32:53;;;;;;;2.40;1.83;;;20.80;51.90;;;-142.21;55.63;112049.66;5017805;28;20204;-76
2022/08/09 02:35:26;;;;;;;2.00;1.80;;;20.80;52.00;;;-142.21;55.77;112049.66;5051948;28;20288;-77
2022/08/09 02:38:06;;;;;;;3.13;2.00;;;20.70;52.00;;;-142.21;55.87;112049.66;5052159;28;20188;-76
2022/08/09 02:40:36;;;;;;;2.27;1.73;;;20.70;52.30;;;-142.21;56.14;112049.66;5067006;28;20213;-75
2022/08/09 02:43:08;;;;;;;3.00;1.87;;;20.60;52.30;;;-142.21;55.73;112049.66;5052239;28;20615;-76
2022/08/09 02:45:43;;;;;;;2.00;1.80;;;20.60;52.10;;;-142.21;56.39;112049.66;5050766;28;20273;-75
2022/08/09 02:48:16;;;;;;;2.10;1.90;;;20.60;52.50;;;-142.21;56.01;112049.66;5051516;28;20197;-76
2022/08/09 02:50:50;;;;;;;1.83;1.73;;;20.60;52.30;;;-142.21;56.13;112049.66;5052031;28;20296;-76
2022/08/09 02:53:28;;;;;;;2.33;1.80;;;20.60;52.30;;;-142.21;56.85;112049.66;5051468;28;20225;-76
2022/08/09 02:56:00;;;;;;;2.10;1.90;;;20.60;52.50;;;-142.21;57.03;112049.66;5052023;28;20279;-76
2022/08/09 02:58:32;;;;;;;1.60;1.50;;;20.50;52.60;;;-142.21;57.52;112049.66;5051809;28;20277;-76
2022/08/09 03:01:02;;;;;;;1.80;1.70;;;20.50;52.80;;;-142.21;58.05;112049.66;5051921;28;20232;-77
2022/08/09 03:03:35;;;;;;;1.93;1.83;;;20.40;52.90;;;-142.21;58.07;112049.66;5051056;28;20744;-76
2022/08/09 03:06:05;;;;;;;3.83;1.80;;;20.40;52.80;;;-142.21;58.11;112049.66;5052103;28;20198;-77
2022/08/09 03:08:34;;;;;;;2.13;1.93;;;20.40;53.00;;;-142.21;58.96;112049.66;5051581;28;20206;-77
2022/08/09 03:11:03;;;;;;;1.73;1.63;;;20.40;53.20;;;-142.21;59.30;112049.66;5051888;28;20229;-75
2022/08/09 03:13:33;;;;;;;2.73;1.80;;;20.30;53.40;;;-142.21;59.01;112049.66;5055426;28;20248;-76
2022/08/09 03:16:04;;;;;;;2.70;2.07;;;20.30;53.50;;;-142.21;60.09;112049.66;5054922;28;20568;-76
2022/08/09 03:18:32;;;;;;;2.20;1.50;;;20.30;54.20;;;-142.21;60.54;112049.66;5054892;28;20204;-76
2022/08/09 03:21:02;;;;;;;2.23;1.97;;;20.20;53.70;;;-142.21;60.58;112049.66;5055623;28;20709;-76
2022/08/09 03:23:30;;;;;;;2.60;1.80;;;20.10;53.90;;;-142.21;60.05;112049.66;5055195;28;20284;-76
2022/08/09 03:25:59;;;;;;;2.10;1.77;;;20.10;53.80;;;-142.21;60.34;112049.66;5054804;28;20208;-76
2022/08/09 03:28:30;;;;;;;1.60;1.50;;;20.10;53.90;;;-142.21;60.50;112049.66;5055033;28;20259;-76
2022/08/09 03:30:59;;;;;;;2.30;2.00;;;20.10;53.90;;;-142.21;61.16;112049.66;5055553;28;20213;-76
2022/08/09 03:33:31;;;;;;;2.03;1.83;;;20.00;54.10;;;-142.21;60.88;112049.66;5054995;28;20296;-76
2022/08/09 03:35:58;;;;;;;1.93;1.70;;;20.00;54.10;;;-142.21;60.85;112049.66;5054712;28;20204;-76
2022/08/09 03:38:26;;;;;;;2.10;1.90;;;20.00;54.10;;;-142.21;61.30;112049.66;5054699;28;20202;-75
2022/08/09 03:40:54;;;;;;;2.10;1.90;;;20.00;54.20;;;-142.21;61.74;112049.66;5054570;28;20651;-75
2022/08/09 03:43:21;;;;;;;2.17;1.97;;;20.00;54.90;;;-142.21;60.88;112049.66;5054725;28;20551;-76
2022/08/09 03:45:48;;;;;;;2.23;1.90;;;20.00;54.10;;;-142.21;60.84;112049.66;5055426;28;20206;-76
2022/08/09 03:48:15;;;;;;;2.27;1.90;;;20.00;54.10;;;-142.21;60.79;112049.66;5054886;28;20206;-77
2022/08/09 03:50:45;;;;;;;2.63;2.43;;;20.00;54.20;;;-142.21;61.39;112049.66;5054516;28;20736;-74
2022/08/09 03:53:16;;;;;;;2.30;2.10;;;19.90;54.30;;;-142.21;61.76;112049.66;5053655;28;20289;-76
2022/08/09 03:55:45;;;;;;;2.27;2.07;;;19.80;54.20;;;-142.21;61.48;112049.66;5054458;28;20202;-75
2022/08/09 03:58:13;;;;;;;3.33;2.20;;;19.80;54.30;;;-142.21;61.25;112049.66;5039216;28;20292;-77
2022/08/09 04:00:42;;;;;;;2.73;2.27;;;19.80;54.20;;;-142.21;60.51;112049.66;5054679;28;20645;-76
2022/08/09 04:03:10;;;;;;;2.20;2.00;;;19.70;53.90;;;-142.21;60.71;112049.66;5054520;28;20224;-76
2022/08/09 04:05:38;;;;;;;2.53;2.27;;;19.70;54.40;;;-142.21;61.37;112049.66;5052831;28;20208;-75
2022/08/09 04:08:09;;;;;;;2.43;2.23;;;19.60;54.10;;;-142.21;62.10;112049.66;5054802;28;20206;-77
2022/08/09 04:10:36;;;;;;;3.17;2.40;;;19.50;54.40;;;-142.21;64.73;112049.66;5054104;28;20249;-76
2022/08/09 04:13:08;;;;;;;2.20;2.00;;;19.50;55.20;;;-142.21;65.13;112049.66;5054354;28;20648;-77
2022/08/09 04:15:37;;;;;;;3.00;2.20;;;19.40;55.30;;;-142.21;64.79;112049.66;5052916;28;20218;-75
2022/08/09 04:18:06;;;;;;;5.80;2.40;;;19.50;55.90;;;-142.21;66.29;112049.66;5054129;28;20285;-77
2022/08/09 04:20:33;;;;;;;6.13;2.90;;;19.50;56.30;;;-142.21;67.40;112049.66;5052664;28;20205;-76
2022/08/09 04:23:01;;;;;;;2.83;1.90;;;19.40;56.10;;;-142.21;68.91;112049.66;5034511;28;20206;-75
2022/08/09 04:25:29;;;;;;;2.77;2.47;;;19.40;56.60;;;-142.21;69.44;112049.66;5053657;28;20651;-76
2022/08/09 04:27:56;;;;;;;5.20;2.00;;;19.40;57.00;;;-142.21;69.45;112049.66;5054548;28;20202;-77
2022/08/09 04:30:26;;;;;;;3.20;2.07;;;19.40;56.60;;;-142.21;69.86;112049.66;5053826;28;20204;-77
2022/08/09 04:32:54;;;;;;;4.33;2.37;;;19.40;57.10;;;-142.21;70.41;112049.66;5054325;28;20233;-75
2022/08/09 04:35:22;;;;;;;2.40;2.20;;;19.40;57.10;;;-142.21;70.66;112049.66;5054136;28;20564;-78
2022/08/09 04:37:49;;;;;;;3.17;2.70;;;19.40;57.20;;;-142.21;69.69;112049.66;5021552;28;20517;-77
2022/08/09 04:40:16;;;;;;;5.43;2.97;;;19.40;57.00;;;-142.21;69.73;112049.66;5052791;28;20206;-76
2022/08/09 04:42:45;;;;;;;3.53;2.70;;;19.40;57.00;;;-142.21;68.97;112049.66;5055824;28;20232;-76
2022/08/09 04:45:15;;;;;;;7.10;2.70;;;19.40;57.00;;;-142.21;69.39;112049.66;5056002;28;20206;-76
2022/08/09 04:47:42;;;;;;;3.93;2.80;;;19.40;57.00;;;-142.21;70.44;112049.66;5034212;28;20215;-77
2022/08/09 04:50:10;;;;;;;3.63;2.60;;;19.40;57.20;;;-142.21;69.53;112049.66;5051669;28;20212;-77
2022/08/09 04:52:37;;;;;;;4.87;2.47;;;19.50;57.10;;;-142.21;67.00;112049.66;5052704;28;20234;-76
2022/08/09 04:55:06;;;;;;;2.50;2.30;;;19.50;56.40;;;-142.21;65.42;112049.66;5053914;28;20534;-77
2022/08/09 04:57:34;;;;;;;6.23;3.70;;;19.50;55.90;;;-142.21;66.60;112049.66;5053374;28;20527;-77
2022/08/09 05:00:18;;;;;;;5.80;2.83;;;19.60;56.30;;;-142.21;69.02;112049.66;5053569;28;20718;-76
2022/08/09 05:02:45;;;;;;;6.87;3.20;;;19.60;57.20;;;-142.21;71.20;112049.66;5042162;28;20528;-76
2022/08/09 05:05:12;;;;;;;5.37;2.90;;;19.60;57.50;;;-142.21;71.01;112049.66;5053180;28;20476;-77
2022/08/09 05:07:40;;;;;;;4.87;2.70;;;19.60;57.60;;;-142.21;70.07;112049.66;5052002;28;20566;-76
2022/08/09 05:10:08;;;;;;;3.87;2.20;;;19.60;57.20;;;-142.21;69.89;112049.66;5053741;28;20284;-77
2022/08/09 05:12:36;;;;;;;2.43;2.23;;;19.60;57.20;;;-142.21;71.04;112049.66;5052884;28;20253;-75
2022/08/09 05:15:03;;;;;;;2.53;2.33;;;19.70;58.20;;;-142.21;69.92;112049.66;5053442;28;20221;-77
2022/08/09 05:17:40;;;;;;;2.70;2.50;;;19.70;57.30;;;-142.21;71.47;112049.66;5036534;28;20198;-75
2022/08/09 05:20:09;;;;;;;2.50;1.90;;;19.70;58.00;;;-142.21;70.37;112049.66;5053290;28;20232;-75
2022/08/09 05:22:38;;;;;;;2.33;2.13;;;19.70;57.30;;;-142.21;70.64;112049.66;5051288;28;20694;-76
2022/08/09 05:25:07;;;;;;;3.97;2.17;;;19.80;57.60;;;-142.21;70.10;112049.66;5053438;28;20468;-75
2022/08/09 05:27:40;;;;;;;2.87;1.87;;;19.90;57.30;;;-142.21;70.82;112049.66;5053066;28;20201;-77
2022/08/09 05:30:09;;;;;;;2.17;1.90;;;19.90;57.40;;;-142.21;70.17;112049.66;5053220;28;20198;-76
2022/08/09 05:32:41;;;;;;;2.83;2.17;;;20.00;57.50;;;-142.21;69.33;112049.66;5052493;28;20257;-78
2022/08/09 05:35:10;;;;;;;4.17;2.00;;;20.00;57.80;;;-142.21;70.30;112049.66;5052645;28;20289;-77
2022/08/09 05:37:37;;;;;;;3.90;2.30;;;20.10;57.30;;;-142.21;70.28;112049.66;5052775;28;20240;-76
2022/08/09 05:40:06;;;;;;;4.17;2.40;;;20.20;57.30;;;-142.21;68.52;112049.66;5053116;28;20272;-75
2022/08/09 05:42:33;;;;;;;2.80;2.60;;;20.20;57.00;;;-142.21;68.14;112049.66;5031349;28;20232;-75
2022/08/09 05:45:01;;;;;;;2.20;2.00;;;20.30;56.80;;;-142.21;66.72;112049.66;5033387;28;20238;-77
2022/08/09 05:47:28;;;;;;;2.87;2.10;;;20.40;56.40;;;-142.21;65.84;112049.66;5035607;28;20206;-75
2022/08/09 05:49:59;;;;;;;4.30;2.20;;;20.50;56.10;;;-142.21;64.95;112049.66;5053183;28;20202;-75
2022/08/09 05:52:29;;;;;;;2.77;1.67;;;20.70;55.80;;;-142.21;64.09;112049.66;5052448;28;20210;-75
2022/08/09 05:54:56;;;;;;;2.47;1.90;;;20.80;55.60;;;-142.21;63.30;112049.66;5052773;28;20639;-76
2022/08/09 05:57:24;;;;;;;4.17;2.13;;;20.90;55.40;;;-142.21;63.04;112049.66;5052430;28;20551;-75
2022/08/09 05:59:51;;;;;;;2.87;2.13;;;21.00;55.40;;;-142.21;63.36;112049.66;5052911;28;20260;-75
2022/08/09 06:02:18;;;;;;;4.60;2.10;;;21.10;55.20;;;-142.21;62.60;112049.66;5052709;28;20190;-76
2022/08/09 06:04:46;;;;;;;8.37;2.13;;;21.20;55.00;;;-142.21;61.68;112049.66;5052214;28;20320;-76
2022/08/09 06:07:14;;;;;;;2.63;2.10;;;21.30;55.40;;;-142.21;60.27;112049.66;5052376;28;20213;-75
2022/08/09 06:09:41;;;;;;;2.50;1.83;;;21.40;54.40;;;-142.21;59.49;112049.66;5050636;28;20636;-76
2022/08/09 06:12:09;;;;;;;1.97;1.60;;;21.50;54.10;;;-142.21;57.80;112049.66;5052725;28;20246;-76
2022/08/09 06:14:36;;;;;;;4.53;1.80;;;21.60;53.60;;;-142.21;57.81;112049.66;5051169;28;20249;-74
2022/08/09 06:17:05;;;;;;;1.73;1.63;;;21.80;53.60;;;-142.21;56.52;112049.66;5052327;28;20201;-77
2022/08/09 06:19:32;;;;;;;5.30;2.03;;;21.90;53.20;;;-142.21;55.53;112049.66;5046783;28;20279;-77
2022/08/09 06:22:00;;;;;;;1.70;1.60;;;21.90;52.80;;;-142.21;55.39;112049.66;5052414;28;20240;-77
2022/08/09 06:24:28;;;;;;;2.27;2.07;;;22.00;52.70;;;-142.21;54.89;112049.66;5052188;28;20289;-77
2022/08/09 06:26:56;;;;;;;3.10;1.80;;;22.10;52.50;;;-142.21;53.50;112049.66;5052457;28;20235;-77
2022/08/09 06:29:24;;;;;;;4.23;2.13;;;22.20;52.00;;;-142.21;53.25;112049.66;5051426;28;20201;-75
2022/08/09 06:31:51;;;;;;;3.00;1.87;;;22.30;51.80;;;-142.21;53.36;112049.66;5050952;28;20225;-75
2022/08/09 06:34:19;;;;;;;2.47;1.90;;;22.50;52.00;;;-142.21;51.64;112049.66;5050506;28;20230;-75
2022/08/09 06:36:46;;;;;;;3.50;1.90;;;22.50;51.10;;;-142.21;50.05;112049.66;5051405;28;20206;-75
2022/08/09 06:39:13;;;;;;;2.53;1.87;;;22.60;50.70;;;-142.21;50.71;112049.66;5052431;28;20202;-75
2022/08/09 06:41:45;;;;;;;2.30;1.80;;;22.70;50.90;;;-142.21;49.63;112049.66;5051536;28;20237;-75
2022/08/09 06:44:13;;;;;;;2.80;1.83;;;22.80;51.10;;;-142.21;49.99;112049.66;5052336;28;20194;-74
2022/08/09 06:46:40;;;;;;;2.50;1.80;;;22.90;50.50;;;-142.21;48.45;112049.66;5052114;28;20233;-74
2022/08/09 06:49:07;;;;;;;2.50;1.80;;;22.90;49.90;;;-142.21;47.80;112049.66;5056365;28;20224;-74
2022/08/09 06:51:35;;;;;;;2.00;1.80;;;23.10;49.80;;;-142.21;47.38;112049.66;5055455;28;20678;-74
2022/08/09 06:54:03;;;;;;;3.97;1.70;;;23.20;49.50;;;-142.21;45.67;112049.66;5056393;28;20310;-75
2022/08/09 06:56:30;;;;;;;2.00;1.73;;;23.30;48.80;;;-142.21;44.44;112049.66;5054253;28;20236;-74
2022/08/09 06:58:58;;;;;;;2.47;1.93;;;23.40;48.30;;;-142.21;43.68;112049.66;5055894;28;20219;-75
2022/08/09 07:01:26;;;;;;;3.00;1.70;;;23.50;47.70;;;-142.21;44.10;112049.66;5054912;28;20205;-75
2022/08/09 07:03:53;;;;;;;2.63;1.77;;;23.60;47.70;;;-142.21;42.37;112049.66;5055770;28;20352;-75
2022/08/09 07:06:20;;;;;;;2.43;1.53;;;23.70;47.00;;;-142.21;41.77;112049.66;5055875;28;20213;-75
2022/08/09 07:08:48;;;;;;;1.90;1.70;;;23.80;46.80;;;-142.21;41.72;112049.66;5055230;28;20259;-74
2022/08/09 07:11:17;;;;;;;5.30;1.87;;;23.90;46.40;;;-142.21;43.07;112049.66;5055967;28;20205;-74
2022/08/09 07:13:44;;;;;;;2.43;2.17;;;24.00;47.20;;;-142.21;42.06;112049.66;5055277;28;20237;-74
2022/08/09 07:16:12;;;;;;;2.93;1.67;;;24.10;46.70;;;-142.21;41.51;112049.66;5055442;28;20202;-74
2022/08/09 07:18:40;;;;;;;3.70;1.70;;;24.20;46.30;;;-142.21;40.98;112049.66;5055276;28;20216;-74
2022/08/09 07:21:07;;;;;;;2.90;1.70;;;24.20;45.80;;;-142.21;41.05;112049.66;5055582;28;20247;-74
2022/08/09 07:23:34;;;;;;;1.50;1.40;;;24.30;45.80;;;-142.21;41.28;112049.66;5055082;28;20267;-74
2022/08/09 07:26:02;;;;;;;2.93;1.90;;;24.40;45.90;;;-142.21;41.11;112049.66;5054561;28;20198;-74
2022/08/09 07:28:32;;;;;;;2.83;2.20;;;24.50;45.80;;;-142.21;41.19;112049.66;5053350;28;20288;-74
2022/08/09 07:30:59;;;;;;;3.40;1.83;;;24.70;45.80;;;-142.21;40.42;112049.66;5054854;28;20277;-75
2022/08/09 07:33:31;;;;;;;3.07;1.87;;;24.70;45.30;;;-142.21;40.10;112049.66;5054518;28;20312;-74
2022/08/09 07:35:58;;;;;;;2.37;1.93;;;24.80;45.70;;;-142.21;39.35;112049.66;5055212;28;20194;-75
2022/08/09 07:38:25;;;;;;;3.63;2.00;;;24.90;44.50;;;-142.21;39.63;112049.66;5055305;28;20267;-74
2022/08/09 07:40:53;;;;;;;4.53;2.50;;;25.00;44.80;;;-142.21;39.83;112049.66;5054948;28;20819;-74
2022/08/09 07:43:20;;;;;;;1.70;1.60;;;25.10;44.60;;;-142.21;39.30;112049.66;5055162;28;20237;-74
2022/08/09 07:45:47;;;;;;;3.37;1.70;;;25.20;44.30;;;-142.21;38.38;112049.66;5054320;28;20245;-73
2022/08/09 07:48:15;;;;;;;2.17;1.97;;;25.30;44.00;;;-142.21;38.66;112049.66;5054976;28;20209;-74
2022/08/09 07:50:44;;;;;;;3.03;2.30;;;25.40;43.90;;;-142.21;38.99;112049.66;5054696;28;20202;-74
2022/08/09 07:53:11;;;;;;;1.97;1.77;;;25.50;44.00;;;-142.21;38.45;112049.66;5054967;28;20690;-74
2022/08/09 07:55:38;;;;;;;3.63;2.17;;;25.60;43.60;;;-142.21;39.05;112049.66;5054651;28;20244;-74
2022/08/09 07:58:06;;;;;;;1.97;1.87;;;25.70;44.00;;;-142.21;38.80;112049.66;5053618;28;20264;-74
2022/08/09 08:00:33;;;;;;;3.03;1.90;;;25.80;43.90;;;-142.21;38.64;112049.66;5054434;28;20304;-74
2022/08/09 08:03:03;;;;;;;1.87;1.70;;;25.90;43.90;;;-142.21;38.67;112049.66;5073949;28;20289;-74
2022/08/09 08:05:30;;;;;;;5.50;2.30;;;26.00;43.60;;;-142.21;38.23;112049.66;5074628;28;20330;-74
2022/08/09 08:08:01;;;;;;;2.00;1.80;;;26.10;43.50;;;-142.21;39.08;112049.66;5075259;28;20224;-74
2022/08/09 08:10:29;;;;;;;1.90;1.80;;;26.30;43.80;;;-142.21;38.45;112049.66;5074507;28;20186;-74
2022/08/09 08:12:56;;;;;;;3.50;1.87;;;26.40;43.40;;;-142.21;38.13;112049.66;5060871;28;20225;-75
2022/08/09 08:15:23;;;;;;;2.93;2.00;;;26.40;43.00;;;-142.21;38.06;112049.66;5054355;28;20283;-75
2022/08/09 08:17:51;;;;;;;2.13;1.93;;;26.50;43.10;;;-142.21;38.40;112049.66;5054006;28;20666;-75
2022/08/09 08:20:19;;;;;;;3.83;2.40;;;26.60;43.30;;;-142.21;38.75;112049.66;5054972;28;20205;-75
2022/08/09 08:22:46;;;;;;;4.57;2.10;;;26.70;43.90;;;-142.21;38.41;112049.66;5054425;28;20209;-75
2022/08/09 08:25:16;;;;;;;3.10;1.70;;;26.80;43.30;;;-142.21;39.39;112049.66;5054231;28;20248;-74
2022/08/09 08:27:44;;;;;;;2.50;1.83;;;26.90;43.70;;;-142.21;38.60;112049.66;5053518;28;20206;-74
2022/08/09 08:30:13;;;;;;;2.37;2.07;;;27.10;43.20;;;-142.21;37.93;112049.66;5054296;28;20206;-75
2022/08/09 08:32:41;;;;;;;2.87;2.10;;;27.10;43.00;;;-142.21;37.63;112049.66;5053521;28;20232;-75
2022/08/09 08:35:09;;;;;;;1.97;1.83;;;27.20;42.60;;;-142.21;39.16;112049.66;5053128;28;20211;-74
2022/08/09 08:37:36;;;;;;;2.53;1.60;;;27.30;43.60;;;-142.21;39.17;112049.66;5053529;28;20211;-75
2022/08/09 08:40:05;;;;;;;5.30;2.00;;;27.50;43.70;;;-142.21;38.10;112049.66;5053841;28;20249;-75
2022/08/09 08:42:34;;;;;;;1.73;1.63;;;27.60;42.90;;;-142.21;38.28;112049.66;5053237;28;20206;-75
2022/08/09 08:45:02;;;;;;;2.17;1.97;;;27.70;42.70;;;-142.21;37.62;112049.66;5053680;28;20218;-75
2022/08/09 08:47:31;;;;;;;2.57;1.50;;;27.80;42.60;;;-142.21;38.03;112049.66;5054155;28;20321;-74
2022/08/09 08:49:59;;;;;;;3.93;1.67;;;27.80;42.50;;;-142.21;37.12;112049.66;5053753;28;20660;-73
2022/08/09 08:52:29;;;;;;;5.70;1.97;;;28.00;41.90;;;-142.21;37.12;112049.66;5054054;28;20305;-75
2022/08/09 08:54:58;;;;;;;2.03;1.90;;;28.00;41.90;;;-142.21;36.91;112049.66;5053609;28;20655;-75
2022/08/09 08:57:27;;;;;;;3.07;2.13;;;28.10;42.00;;;-142.21;36.89;112049.66;5053630;28;20282;-74
2022/08/09 08:59:56;;;;;;;2.27;1.90;;;28.20;42.00;;;-142.21;36.94;112049.66;5053137;28;20207;-74
2022/08/09 09:02:28;;;;;;;2.83;2.10;;;28.30;42.00;;;-142.21;35.78;112049.66;5053670;28;20242;-74
2022/08/09 09:04:59;;;;;;;6.20;1.80;;;28.40;41.10;;;-142.21;36.01;112049.66;5052992;28;20243;-74
2022/08/09 09:07:29;;;;;;;2.10;1.90;;;28.50;41.20;;;-142.21;36.35;112049.66;5053703;28;20241;-74
2022/08/09 09:09:57;;;;;;;2.67;1.97;;;28.60;41.40;;;-142.21;36.69;112049.66;5053127;28;20220;-75
2022/08/09 09:12:29;;;;;;;3.60;1.97;;;28.70;41.80;;;-142.21;36.35;112049.66;5053056;28;20224;-75
2022/08/09 09:15:00;;;;;;;2.37;1.90;;;28.90;41.60;;;-142.21;35.70;112049.66;5053747;28;20263;-75
2022/08/09 09:17:29;;;;;;;1.73;1.63;;;29.00;41.10;;;-142.21;35.64;112049.66;5053812;28;20202;-76
2022/08/09 09:19:56;;;;;;;1.90;1.80;;;29.10;41.10;;;-142.21;35.34;112049.66;5053206;28;20586;-74
2022/08/09 09:22:24;;;;;;;1.97;1.77;;;29.20;40.60;;;-142.21;35.88;112049.66;5053517;28;20208;-74
2022/08/09 09:24:55;;;;;;;1.90;1.60;;;29.30;40.90;;;-142.21;34.64;112049.66;5053142;28;20713;-74
2022/08/09 09:27:25;;;;;;;3.43;1.70;;;29.50;40.10;;;-142.21;34.63;112049.66;5053184;28;20240;-74
2022/08/09 09:29:54;;;;;;;3.47;1.70;;;29.60;40.00;;;-142.21;34.47;112049.66;5053017;28;20205;-74
2022/08/09 09:32:26;;;;;;;2.00;1.90;;;29.70;39.70;;;-142.21;34.09;112049.66;5053126;28;20249;-75
2022/08/09 09:35:08;;;;;;;1.93;1.80;;;29.70;39.50;;;-142.21;35.04;112049.66;5052922;28;20235;-75
2022/08/09 09:37:36;;;;;;;1.90;1.70;;;29.80;39.80;;;-142.21;34.16;112049.66;5052450;28;20657;-75
2022/08/09 09:40:06;;;;;;;2.90;2.27;;;30.00;39.50;;;-142.21;33.76;112049.66;5053012;28;20286;-74
2022/08/09 09:42:34;;;;;;;3.27;1.80;;;30.00;38.60;;;-142.21;33.25;112049.66;5052290;28;20267;-75
2022/08/09 09:45:05;;;;;;;2.63;1.60;;;30.10;38.60;;;-142.21;33.40;112049.66;5053077;28;20217;-75
2022/08/09 09:47:35;;;;;;;2.30;2.00;;;30.20;38.40;;;-142.21;32.79;112049.66;5052986;28;20209;-75
2022/08/09 09:50:04;;;;;;;2.13;1.70;;;30.30;37.60;;;-142.21;32.18;112049.66;5052725;28;20213;-73
2022/08/09 09:52:32;;;;;;;1.83;1.70;;;30.30;37.30;;;-142.21;32.51;112049.66;5052854;28;20221;-74
2022/08/09 09:55:06;;;;;;;1.90;1.70;;;30.40;37.40;;;-142.21;33.35;112049.66;5052835;28;20205;-75
2022/08/09 09:57:34;;;;;;;2.50;1.80;;;30.50;37.80;;;-142.21;33.37;112049.66;5052379;28;20197;-74
2022/08/09 10:00:02;;;;;;;1.93;1.80;;;30.60;38.00;;;-142.21;33.21;112049.66;5052887;28;20271;-74
2022/08/09 10:02:29;;;;;;;3.00;2.00;;;30.80;38.00;;;-142.21;32.34;112049.66;5052420;28;20240;-73
2022/08/09 10:05:10;;;;;;;1.60;1.50;;;30.90;37.30;;;-142.21;32.43;112049.66;5051743;28;20272;-75
2022/08/09 10:07:37;;;;;;;1.83;1.70;;;31.00;37.00;;;-142.21;32.16;112049.66;5051871;28;20190;-76
2022/08/09 10:10:06;;;;;;;3.63;1.83;;;31.20;37.00;;;-142.21;31.89;112049.66;5052142;28;20248;-75
2022/08/09 10:12:36;;;;;;;2.23;1.90;;;31.20;36.50;;;-142.21;31.26;112049.66;5052587;28;20245;-75
2022/08/09 10:15:10;;;;;;;3.23;1.80;;;31.40;36.20;;;-142.21;31.24;112049.66;5052421;28;20237;-74
2022/08/09 10:17:39;;;;;;;1.90;1.80;;;31.40;35.60;;;-142.21;30.50;112049.66;5052168;28;20221;-73
2022/08/09 10:20:26;;;;;;;1.80;1.70;;;31.50;35.10;;;-142.21;30.60;112049.66;5052365;28;20670;-75
2022/08/09 10:22:59;;;;;;;2.00;1.80;;;31.60;34.60;;;-142.21;31.05;112049.66;5051845;28;20566;-75
2022/08/09 10:25:26;;;;;;;2.20;1.90;;;31.60;35.10;;;-142.21;31.16;112049.66;5052279;28;20270;-75
2022/08/09 10:27:54;;;;;;;2.07;1.80;;;31.80;35.60;;;-142.21;30.08;112049.66;5052020;28;20211;-75
2022/08/09 10:30:23;;;;;;;1.87;1.70;;;31.90;35.10;;;-142.21;31.05;112049.66;5052489;28;20297;-74